Time;durP1;ratioP1;P1;durP2;ratioP2;P2;SDS_P1;SDS_P2;PMS_P1;PMS_P2;Temp;Humidity;BMP_temperature;BMP_pressure;BME280_temperature;BME280_humidity;BME280_pressure;Samples;Min_cycle;Max_cycle;Signal;HPM_P1;HPM_P2
2022/03/21 00:01:05;;;;;;;19.60;15.60;;;7.40;77.00;;;;;;5010630;28;20960;-68
2022/03/21 00:03:31;;;;;;;18.47;16.10;;;7.50;77.00;;;;;;5013012;28;20433;-68
2022/03/21 00:05:57;;;;;;;21.40;17.33;;;7.50;79.10;;;;;;5010756;28;20437;-68
2022/03/21 00:08:24;;;;;;;22.80;16.57;;;7.40;79.30;;;;;;5011244;28;20179;-68
2022/03/21 00:10:50;;;;;;;17.97;15.03;;;7.40;79.50;;;;;;5006691;28;20434;-68
2022/03/21 00:13:16;;;;;;;20.40;16.30;;;7.40;79.20;;;;;;5008203;28;20989;-68
2022/03/21 00:15:43;;;;;;;21.23;16.87;;;7.30;80.30;;;;;;5012993;28;20437;-68
2022/03/21 00:18:08;;;;;;;17.70;15.67;;;7.30;81.80;;;;;;5012100;28;20183;-68
2022/03/21 00:20:34;;;;;;;17.93;16.13;;;7.30;81.30;;;;;;5005497;28;20832;-68
2022/03/21 00:23:00;;;;;;;19.73;15.17;;;7.30;82.50;;;;;;5011434;28;20187;-68
2022/03/21 00:25:26;;;;;;;16.30;13.60;;;7.20;80.90;;;;;;5011917;28;20555;-68
2022/03/21 00:27:52;;;;;;;16.40;14.27;;;7.20;82.50;;;;;;5009095;28;20442;-68
2022/03/21 00:30:17;;;;;;;19.07;15.93;;;7.20;81.80;;;;;;5004680;28;20214;-68
2022/03/21 00:32:43;;;;;;;21.90;15.00;;;7.10;82.10;;;;;;5009323;28;20481;-69
2022/03/21 00:35:11;;;;;;;18.00;15.70;;;7.00;84.10;;;;;;5001005;28;20246;-68
2022/03/21 00:37:37;;;;;;;19.97;16.13;;;6.90;87.20;;;;;;4998428;28;20453;-68
2022/03/21 00:40:06;;;;;;;18.53;14.93;;;6.80;90.00;;;;;;5006557;28;20490;-68
2022/03/21 00:42:35;;;;;;;17.27;15.30;;;6.70;89.60;;;;;;5007706;28;20525;-68
2022/03/21 00:45:02;;;;;;;21.50;15.43;;;6.60;88.20;;;;;;5002794;28;20437;-68
2022/03/21 00:47:28;;;;;;;15.50;14.00;;;6.50;90.30;;;;;;5013622;28;20444;-68
2022/03/21 00:49:53;;;;;;;19.10;15.30;;;6.50;90.80;;;;;;4999645;28;20454;-68
2022/03/21 00:52:20;;;;;;;23.27;16.50;;;6.60;90.60;;;;;;5001611;28;20195;-68
2022/03/21 00:54:46;;;;;;;19.37;15.40;;;6.60;90.80;;;;;;5009250;28;20198;-68
2022/03/21 00:57:11;;;;;;;19.40;15.53;;;6.60;90.30;;;;;;5008090;28;20425;-68
2022/03/21 00:59:37;;;;;;;19.43;16.77;;;6.60;90.00;;;;;;5007941;28;20461;-68
2022/03/21 01:02:03;;;;;;;17.63;14.70;;;6.60;89.80;;;;;;5010006;28;20176;-68
2022/03/21 01:04:28;;;;;;;20.30;16.77;;;6.60;90.00;;;;;;5009053;28;20226;-68
2022/03/21 01:06:54;;;;;;;20.80;16.50;;;6.60;92.10;;;;;;5011255;28;20183;-68
2022/03/21 01:09:19;;;;;;;18.17;13.67;;;6.60;92.00;;;;;;5011379;28;20701;-68
2022/03/21 01:11:45;;;;;;;22.23;14.43;;;6.60;91.90;;;;;;5010664;28;20682;-68
2022/03/21 01:14:11;;;;;;;19.30;14.43;;;6.60;91.60;;;;;;5004353;28;20697;-68
2022/03/21 01:16:37;;;;;;;18.80;15.63;;;6.60;90.50;;;;;;5011524;28;20709;-68
2022/03/21 01:19:04;;;;;;;21.00;16.23;;;6.60;91.20;;;;;;4999610;28;20545;-68
2022/03/21 01:21:30;;;;;;;20.07;15.40;;;6.60;91.40;;;;;;5007640;28;20445;-68
2022/03/21 01:23:56;;;;;;;19.90;15.13;;;6.50;92.20;;;;;;5007249;28;20851;-68
2022/03/21 01:26:21;;;;;;;19.23;15.10;;;6.50;92.10;;;;;;5008477;28;20437;-68
2022/03/21 01:28:47;;;;;;;20.47;16.30;;;6.50;91.30;;;;;;5003261;28;20210;-68
2022/03/21 01:31:12;;;;;;;19.30;15.80;;;6.40;91.80;;;;;;5010782;28;20261;-68
2022/03/21 01:33:38;;;;;;;16.83;14.90;;;6.40;93.30;;;;;;5003179;28;20186;-68
2022/03/21 01:36:05;;;;;;;17.60;13.90;;;6.40;94.30;;;;;;5008449;28;20658;-68
2022/03/21 01:38:30;;;;;;;17.83;13.80;;;6.30;93.50;;;;;;5009725;28;20191;-68
2022/03/21 01:40:56;;;;;;;17.70;14.93;;;6.20;93.40;;;;;;5010570;28;21011;-68
2022/03/21 01:43:22;;;;;;;18.13;15.20;;;6.20;93.90;;;;;;5010421;28;20210;-68
2022/03/21 01:45:47;;;;;;;21.40;17.30;;;6.10;94.30;;;;;;5009916;28;20197;-68
2022/03/21 01:48:13;;;;;;;19.80;14.77;;;6.10;94.40;;;;;;5007341;28;20229;-67
2022/03/21 01:50:40;;;;;;;17.97;14.33;;;6.00;95.60;;;;;;5010292;28;20195;-68
2022/03/21 01:55:50;;;;;;;15.87;13.63;;;6.10;95.10;;;;;;5008139;28;20488;-68
2022/03/21 01:58:16;;;;;;;16.70;14.87;;;6.10;95.60;;;;;;5003540;28;20513;-69
2022/03/21 02:00:43;;;;;;;19.70;15.93;;;6.10;95.90;;;;;;5002563;28;20462;-68
2022/03/21 02:03:09;;;;;;;22.43;17.07;;;6.10;96.60;;;;;;5006835;28;20458;-68
2022/03/21 02:05:37;;;;;;;20.57;16.57;;;5.90;98.10;;;;;;5009208;28;20442;-68
2022/03/21 02:08:03;;;;;;;22.63;16.27;;;5.80;99.00;;;;;;5010307;28;20187;-68
2022/03/21 02:10:30;;;;;;;19.10;15.10;;;5.80;98.70;;;;;;5002637;28;21019;-68
2022/03/21 02:12:56;;;;;;;18.00;15.70;;;5.80;98.70;;;;;;5007233;28;20461;-68
2022/03/21 02:15:22;;;;;;;20.70;17.00;;;5.80;99.40;;;;;;5006669;28;20448;-68
2022/03/21 02:17:51;;;;;;;20.30;16.50;;;5.80;99.50;;;;;;5010646;28;20238;-68
2022/03/21 02:20:18;;;;;;;17.83;14.80;;;5.70;99.90;;;;;;5006771;28;20578;-68
2022/03/21 02:22:59;;;;;;;21.40;15.60;;;5.60;99.90;;;;;;5011187;28;20442;-68
2022/03/21 02:25:32;;;;;;;17.80;14.67;;;5.70;99.30;;;;;;5006387;28;20970;-68
2022/03/21 02:28:05;;;;;;;19.83;16.03;;;5.70;99.20;;;;;;5006415;28;20454;-68
2022/03/21 02:30:34;;;;;;;18.33;15.10;;;5.70;99.20;;;;;;5007235;28;20465;-68
2022/03/21 02:33:01;;;;;;;18.53;14.60;;;5.70;99.90;;;;;;5008718;28;20469;-68
2022/03/21 02:35:28;;;;;;;20.53;16.00;;;5.70;99.90;;;;;;5009822;28;20884;-68
2022/03/21 02:37:56;;;;;;;18.70;14.60;;;5.70;99.90;;;;;;5009561;28;21029;-68
2022/03/21 02:40:23;;;;;;;19.60;15.73;;;5.70;99.90;;;;;;5006817;28;20468;-68
2022/03/21 02:42:49;;;;;;;20.83;16.13;;;5.70;99.80;;;;;;5008126;28;21222;-68
2022/03/21 02:45:15;;;;;;;18.60;14.70;;;5.80;99.90;;;;;;5004436;28;21534;-68
2022/03/21 02:47:41;;;;;;;21.37;16.37;;;5.80;99.90;;;;;;5001246;28;20441;-68
2022/03/21 02:50:12;;;;;;;16.93;15.00;;;5.80;99.90;;;;;;5015167;28;21186;-68
2022/03/21 02:52:39;;;;;;;17.20;15.17;;;5.80;99.90;;;;;;5005246;28;20574;-68
2022/03/21 02:55:05;;;;;;;17.53;14.70;;;5.90;99.90;;;;;;5006546;28;20976;-68
2022/03/21 02:57:32;;;;;;;16.80;14.70;;;6.00;99.10;;;;;;5008586;28;20448;-68
2022/03/21 02:59:58;;;;;;;18.20;14.20;;;6.10;98.80;;;;;;5013069;28;20841;-68
2022/03/21 03:02:24;;;;;;;18.83;15.33;;;6.10;99.90;;;;;;5006592;28;20434;-68
2022/03/21 03:04:49;;;;;;;20.00;14.77;;;6.00;99.90;;;;;;5004704;28;20458;-68
2022/03/21 03:07:15;;;;;;;18.63;14.40;;;6.00;99.90;;;;;;5013583;28;20672;-68
2022/03/21 03:09:41;;;;;;;18.63;14.77;;;5.90;99.60;;;;;;5017633;28;20213;-68
2022/03/21 03:12:08;;;;;;;19.63;14.30;;;6.00;99.90;;;;;;5014427;28;20674;-68
2022/03/21 03:14:34;;;;;;;17.50;14.50;;;5.90;99.90;;;;;;5006034;28;20182;-68
2022/03/21 03:17:01;;;;;;;17.23;14.37;;;5.80;99.90;;;;;;5008508;28;20438;-68
2022/03/21 03:19:27;;;;;;;19.30;14.33;;;5.70;99.90;;;;;;5012269;28;20870;-68
2022/03/21 03:21:53;;;;;;;17.83;14.83;;;5.70;99.90;;;;;;4999789;28;20452;-68
2022/03/21 03:24:19;;;;;;;18.97;15.43;;;5.70;99.90;;;;;;5005336;28;20186;-68
2022/03/21 03:26:45;;;;;;;17.10;13.70;;;5.70;99.90;;;;;;5016715;28;20523;-68
2022/03/21 03:29:10;;;;;;;19.53;14.97;;;5.60;99.90;;;;;;5015774;28;20464;-68
2022/03/21 03:31:36;;;;;;;16.43;14.67;;;5.60;99.90;;;;;;5010665;28;20225;-68
2022/03/21 03:34:03;;;;;;;15.87;14.27;;;5.50;99.90;;;;;;5011211;28;20183;-68
2022/03/21 03:36:29;;;;;;;21.00;15.03;;;5.50;99.90;;;;;;5006100;28;20183;-68
2022/03/21 03:38:54;;;;;;;19.30;14.30;;;5.50;99.90;;;;;;5007266;28;20671;-68
2022/03/21 03:41:20;;;;;;;15.33;13.13;;;5.50;99.90;;;;;;5014025;28;20263;-68
2022/03/21 03:43:49;;;;;;;15.43;13.90;;;5.50;99.90;;;;;;5014021;28;20210;-68
2022/03/21 03:46:18;;;;;;;18.50;14.07;;;5.50;99.90;;;;;;5013727;28;20457;-68
2022/03/21 03:48:45;;;;;;;15.27;13.27;;;5.40;99.90;;;;;;5005621;28;20461;-68
2022/03/21 03:51:11;;;;;;;18.33;14.10;;;5.30;99.90;;;;;;5008627;28;20441;-68
2022/03/21 03:53:37;;;;;;;22.77;12.43;;;5.30;99.90;;;;;;5019681;28;20471;-69
2022/03/21 03:56:03;;;;;;;19.53;13.93;;;5.30;99.90;;;;;;5010024;28;20426;-69
2022/03/21 03:58:30;;;;;;;17.50;12.70;;;5.30;99.90;;;;;;5014380;28;21053;-68
2022/03/21 04:00:56;;;;;;;16.77;14.20;;;5.20;99.90;;;;;;5006646;28;20278;-69
2022/03/21 04:06:06;;;;;;;17.83;13.90;;;5.20;99.90;;;;;;5014166;28;20610;-69
2022/03/21 04:08:32;;;;;;;17.07;13.57;;;5.20;99.90;;;;;;5012638;28;20812;-68
2022/03/21 04:10:57;;;;;;;18.27;14.60;;;5.20;99.90;;;;;;5012495;28;20449;-68
2022/03/21 04:13:23;;;;;;;16.50;12.63;;;5.30;99.90;;;;;;5008395;28;20210;-69
2022/03/21 04:15:48;;;;;;;17.00;13.20;;;5.40;99.90;;;;;;5013415;28;20261;-69
2022/03/21 04:18:14;;;;;;;17.20;14.00;;;5.40;99.90;;;;;;5012954;28;20712;-69
2022/03/21 04:20:40;;;;;;;18.23;14.40;;;5.30;99.40;;;;;;5013356;28;20195;-68
2022/03/21 04:23:07;;;;;;;17.90;15.07;;;5.30;99.40;;;;;;5012210;28;20179;-68
2022/03/21 04:25:33;;;;;;;15.63;12.20;;;5.40;98.10;;;;;;5008345;28;20452;-68
2022/03/21 04:27:59;;;;;;;17.07;13.63;;;5.40;98.00;;;;;;4997601;28;20438;-68
2022/03/21 04:30:25;;;;;;;16.00;13.63;;;5.40;98.00;;;;;;5005631;28;20194;-68
2022/03/21 04:32:50;;;;;;;20.30;14.03;;;5.40;97.70;;;;;;5014015;28;20466;-69
2022/03/21 04:35:16;;;;;;;17.83;12.73;;;5.40;98.30;;;;;;5012428;28;20659;-69
2022/03/21 04:37:42;;;;;;;15.63;13.40;;;5.40;98.50;;;;;;5012473;28;20223;-68
2022/03/21 04:40:08;;;;;;;15.47;12.13;;;5.40;98.00;;;;;;5015314;28;20202;-68
2022/03/21 04:42:35;;;;;;;16.50;13.03;;;5.40;98.80;;;;;;5012293;28;20182;-68
2022/03/21 04:45:02;;;;;;;17.03;13.17;;;5.40;98.20;;;;;;5012170;28;20464;-69
2022/03/21 04:47:28;;;;;;;22.47;14.43;;;5.40;98.40;;;;;;5001547;28;20962;-68
2022/03/21 04:49:54;;;;;;;18.60;12.43;;;5.40;98.10;;;;;;5004359;28;20497;-68
2022/03/21 04:52:19;;;;;;;15.77;13.50;;;5.30;97.50;;;;;;4998944;28;20203;-69
2022/03/21 04:54:45;;;;;;;19.60;14.27;;;5.30;98.10;;;;;;5009180;28;20659;-69
2022/03/21 04:57:12;;;;;;;18.03;13.30;;;5.20;97.70;;;;;;5012831;28;20179;-68
2022/03/21 04:59:38;;;;;;;15.37;13.20;;;5.10;97.30;;;;;;5011967;28;20202;-69
2022/03/21 05:02:04;;;;;;;17.40;13.73;;;5.10;98.00;;;;;;5012743;28;20937;-69
2022/03/21 05:04:31;;;;;;;18.50;13.00;;;5.10;98.00;;;;;;5009679;28;20499;-69
2022/03/21 05:06:57;;;;;;;18.10;13.43;;;5.10;97.10;;;;;;4998909;28;20529;-69
2022/03/21 05:09:22;;;;;;;20.87;14.77;;;5.20;97.80;;;;;;5016702;28;20457;-69
2022/03/21 05:11:48;;;;;;;16.57;13.07;;;5.10;98.10;;;;;;5019433;28;20461;-68
2022/03/21 05:14:16;;;;;;;17.73;13.63;;;5.10;98.40;;;;;;5011105;28;20293;-69
2022/03/21 05:16:41;;;;;;;18.50;14.13;;;5.10;97.70;;;;;;5009519;28;20179;-69
2022/03/21 05:19:07;;;;;;;19.07;15.27;;;5.10;98.10;;;;;;4995173;28;20988;-69
2022/03/21 05:21:32;;;;;;;18.97;13.00;;;5.10;98.30;;;;;;4988263;28;20561;-68
2022/03/21 05:32:10;;;;;;;21.23;13.10;;;5.00;97.90;;;;;;5006592;28;20560;-68
2022/03/21 05:37:20;;;;;;;14.83;12.80;;;5.00;99.60;;;;;;5024479;28;20213;-68
2022/03/21 05:42:29;;;;;;;20.67;15.80;;;4.90;99.90;;;;;;5004785;28;20274;-68
2022/03/21 05:44:54;;;;;;;17.23;14.60;;;4.80;99.90;;;;;;4998138;28;20504;-68
2022/03/21 05:47:20;;;;;;;17.37;13.20;;;4.80;99.90;;;;;;5014614;28;20241;-69
2022/03/21 05:49:45;;;;;;;18.17;14.67;;;4.80;99.90;;;;;;5016524;28;20249;-68
2022/03/21 05:52:11;;;;;;;18.57;13.67;;;4.80;99.90;;;;;;5014017;28;20214;-69
2022/03/21 05:54:37;;;;;;;18.23;12.97;;;4.80;99.90;;;;;;5008178;28;20563;-69
2022/03/21 05:57:03;;;;;;;19.37;14.63;;;4.80;99.90;;;;;;5008111;28;20237;-69
2022/03/21 06:02:12;;;;;;;18.77;15.47;;;4.90;99.90;;;;;;5013002;28;20445;-68
2022/03/21 06:04:38;;;;;;;30.70;16.40;;;5.10;99.90;;;;;;5011859;28;20437;-69
2022/03/21 06:07:04;;;;;;;19.63;14.83;;;5.10;99.90;;;;;;5016884;28;20197;-68
2022/03/21 06:09:29;;;;;;;20.33;15.10;;;5.20;99.90;;;;;;5011336;28;20226;-69
2022/03/21 06:11:55;;;;;;;20.17;14.40;;;5.30;99.90;;;;;;5010562;28;20454;-68
2022/03/21 06:14:21;;;;;;;19.07;15.40;;;5.30;99.90;;;;;;5011063;28;20523;-68
2022/03/21 06:16:47;;;;;;;18.43;14.87;;;5.40;99.90;;;;;;5001152;28;20442;-69
2022/03/21 06:19:13;;;;;;;17.90;14.47;;;5.60;99.90;;;;;;5009836;28;20210;-68
2022/03/21 06:21:39;;;;;;;20.50;14.90;;;5.70;99.90;;;;;;5007700;28;20827;-68
2022/03/21 06:24:05;;;;;;;16.90;13.90;;;5.80;99.90;;;;;;5014407;28;21047;-68
2022/03/21 06:26:30;;;;;;;19.70;14.50;;;5.90;99.50;;;;;;5004293;28;20179;-68
2022/03/21 06:28:56;;;;;;;17.90;14.20;;;6.10;99.30;;;;;;5014998;28;20230;-68
2022/03/21 06:31:22;;;;;;;20.83;14.77;;;6.20;98.50;;;;;;5014526;28;20179;-68
2022/03/21 06:33:47;;;;;;;17.27;14.20;;;6.20;98.30;;;;;;5011981;28;20264;-67
2022/03/21 06:36:14;;;;;;;20.50;15.93;;;6.40;98.50;;;;;;5015009;28;20174;-67
2022/03/21 06:38:40;;;;;;;17.80;15.07;;;6.50;98.00;;;;;;5016458;28;20577;-68
2022/03/21 06:41:06;;;;;;;20.40;15.40;;;6.70;98.10;;;;;;5004823;28;20438;-66
2022/03/21 06:43:32;;;;;;;26.27;18.83;;;6.80;97.50;;;;;;5014986;28;20178;-69
2022/03/21 06:45:58;;;;;;;22.90;16.20;;;6.90;97.30;;;;;;5015150;28;20429;-67
2022/03/21 06:48:25;;;;;;;20.43;14.80;;;6.90;96.90;;;;;;5024500;28;20171;-66
2022/03/21 06:50:52;;;;;;;23.90;16.63;;;6.90;96.60;;;;;;5004495;28;20438;-67
2022/03/21 06:53:18;;;;;;;23.57;16.20;;;7.00;96.10;;;;;;5014942;28;20566;-69
2022/03/21 06:55:45;;;;;;;20.47;15.93;;;7.00;95.80;;;;;;5012715;28;20592;-69
2022/03/21 06:58:14;;;;;;;21.20;15.40;;;7.20;95.80;;;;;;5012748;28;20433;-68
2022/03/21 07:00:45;;;;;;;18.87;14.70;;;7.30;95.40;;;;;;5007687;28;20480;-69
2022/03/21 07:03:11;;;;;;;20.53;15.60;;;7.60;95.50;;;;;;5008795;28;20438;-69
2022/03/21 07:05:38;;;;;;;23.00;16.43;;;7.90;95.90;;;;;;5013495;28;20445;-70
2022/03/21 07:08:04;;;;;;;22.20;16.23;;;8.10;95.20;;;;;;5013014;28;20437;-68
2022/03/21 07:10:34;;;;;;;23.23;16.57;;;8.30;95.20;;;;;;5014659;28;20465;-69
2022/03/21 07:13:07;;;;;;;24.50;17.43;;;8.60;94.70;;;;;;5014025;28;20835;-67
2022/03/21 07:15:33;;;;;;;22.93;16.20;;;8.90;93.30;;;;;;5014880;28;20425;-67
2022/03/21 07:17:59;;;;;;;25.17;17.93;;;9.20;92.70;;;;;;5018844;28;20950;-68
2022/03/21 07:20:28;;;;;;;26.30;17.87;;;9.40;92.20;;;;;;5008848;28;20203;-68
2022/03/21 07:22:58;;;;;;;18.80;15.90;;;9.60;92.00;;;;;;5010638;28;20328;-69
2022/03/21 07:25:24;;;;;;;24.20;17.27;;;9.80;91.20;;;;;;5014586;28;20433;-68
2022/03/21 07:27:49;;;;;;;18.20;16.07;;;9.90;90.70;;;;;;5019383;28;20494;-68
2022/03/21 07:30:16;;;;;;;23.73;18.17;;;9.90;90.30;;;;;;5014874;28;20458;-68
2022/03/21 07:32:42;;;;;;;23.37;18.50;;;10.10;90.20;;;;;;5014829;28;20281;-68
2022/03/21 07:35:09;;;;;;;18.93;15.97;;;10.10;90.30;;;;;;5004449;28;20430;-67
2022/03/21 07:37:43;;;;;;;20.33;16.33;;;10.10;90.80;;;;;;5011536;28;20452;-68
2022/03/21 07:40:11;;;;;;;23.17;17.73;;;10.30;90.40;;;;;;5014832;28;20461;-68
2022/03/21 07:42:41;;;;;;;18.57;16.00;;;10.40;89.30;;;;;;5008990;28;20425;-67
2022/03/21 07:47:53;;;;;;;19.30;15.80;;;10.70;86.00;;;;;;5013155;28;20812;-69
2022/03/21 07:50:20;;;;;;;17.60;15.73;;;10.90;86.00;;;;;;5013568;28;20461;-68
2022/03/21 07:52:47;;;;;;;27.93;17.70;;;11.10;85.10;;;;;;5010557;28;20464;-68
2022/03/21 07:55:13;;;;;;;16.83;13.90;;;11.30;82.80;;;;;;5013181;28;20925;-68
2022/03/21 07:57:38;;;;;;;16.50;14.77;;;11.30;80.30;;;;;;5004676;28;20442;-69
2022/03/21 08:00:05;;;;;;;19.67;16.50;;;11.40;80.20;;;;;;5010920;28;20461;-68
2022/03/21 08:02:35;;;;;;;19.23;16.20;;;11.60;79.50;;;;;;4999042;28;20194;-69
2022/03/21 08:05:01;;;;;;;16.13;14.53;;;11.70;76.70;;;;;;4996546;28;20445;-69
2022/03/21 08:07:27;;;;;;;20.23;15.00;;;11.50;75.30;;;;;;5004283;28;20879;-68
2022/03/21 08:09:52;;;;;;;17.23;14.83;;;11.40;73.00;;;;;;5007963;28;20454;-68
2022/03/21 08:12:19;;;;;;;16.53;14.90;;;11.30;72.90;;;;;;5007213;28;20819;-68
2022/03/21 08:14:45;;;;;;;18.03;15.23;;;11.00;73.70;;;;;;5009091;28;20191;-69
2022/03/21 08:17:10;;;;;;;15.70;14.10;;;11.40;75.00;;;;;;5012400;28;20432;-69
2022/03/21 08:19:36;;;;;;;16.10;14.50;;;11.90;74.60;;;;;;5014099;28;20203;-68
2022/03/21 08:22:04;;;;;;;17.13;15.10;;;12.20;73.80;;;;;;5004200;28;20642;-69
2022/03/21 08:24:34;;;;;;;15.40;13.90;;;12.40;72.50;;;;;;5008584;28;20261;-69
2022/03/21 08:26:59;;;;;;;17.60;14.63;;;12.70;72.30;;;;;;5005862;28;20439;-67
2022/03/21 08:29:25;;;;;;;19.27;15.60;;;13.10;70.80;;;;;;5007083;28;21003;-68
2022/03/21 08:31:50;;;;;;;18.13;15.67;;;13.20;69.90;;;;;;4997531;28;20230;-68
2022/03/21 08:34:16;;;;;;;17.97;16.10;;;13.50;69.40;;;;;;5004177;28;20191;-68
2022/03/21 08:36:42;;;;;;;19.10;16.40;;;13.60;69.80;;;;;;5008526;28;20269;-68
2022/03/21 08:39:10;;;;;;;18.33;16.30;;;14.00;68.50;;;;;;5016187;28;20210;-68
2022/03/21 08:41:36;;;;;;;20.10;16.90;;;14.10;68.30;;;;;;5007076;28;20205;-68
2022/03/21 08:44:02;;;;;;;17.73;15.87;;;14.70;66.80;;;;;;5011431;28;20498;-68
2022/03/21 08:46:27;;;;;;;18.90;16.90;;;14.90;65.20;;;;;;5016006;28;20437;-68
2022/03/21 08:51:37;;;;;;;19.03;17.20;;;14.90;64.00;;;;;;5000569;28;20646;-68
2022/03/21 08:54:04;;;;;;;22.90;17.43;;;15.50;62.00;;;;;;5008251;28;20433;-69
2022/03/21 08:56:30;;;;;;;19.33;17.07;;;15.80;61.40;;;;;;5009658;28;20221;-68
2022/03/21 08:58:56;;;;;;;23.00;18.40;;;16.10;59.80;;;;;;5008461;28;21051;-68
2022/03/21 09:01:22;;;;;;;26.57;23.77;;;16.40;59.00;;;;;;5004045;28;20187;-69
2022/03/21 09:03:48;;;;;;;24.00;18.90;;;16.30;59.00;;;;;;5007578;28;20457;-69
2022/03/21 09:06:14;;;;;;;18.40;16.73;;;17.10;57.60;;;;;;5007265;28;20468;-69
2022/03/21 09:08:42;;;;;;;32.43;19.07;;;17.00;56.90;;;;;;5011419;28;20182;-69
2022/03/21 09:11:08;;;;;;;20.77;18.67;;;17.60;56.50;;;;;;4994029;28;20182;-70
2022/03/21 09:13:33;;;;;;;19.77;17.67;;;18.20;55.30;;;;;;4997913;28;20459;-70
2022/03/21 09:15:59;;;;;;;20.40;18.40;;;19.10;54.20;;;;;;4994387;28;20182;-70
2022/03/21 09:18:24;;;;;;;20.43;17.93;;;19.40;52.20;;;;;;5005072;28;20261;-69
2022/03/21 09:20:50;;;;;;;23.43;19.17;;;19.70;51.20;;;;;;4998302;28;20601;-69
2022/03/21 09:23:16;;;;;;;20.50;18.50;;;19.70;50.60;;;;;;4996856;28;20190;-70
2022/03/21 09:25:41;;;;;;;20.07;18.07;;;19.50;50.30;;;;;;4999242;28;20283;-69
2022/03/21 09:28:08;;;;;;;21.03;19.03;;;20.00;49.70;;;;;;5002671;28;20233;-69
2022/03/21 09:30:33;;;;;;;21.17;19.17;;;20.20;49.00;;;;;;5007798;28;20203;-70
2022/03/21 09:32:59;;;;;;;20.47;18.33;;;19.90;48.40;;;;;;4999219;28;20479;-69
2022/03/21 09:35:25;;;;;;;21.50;19.40;;;20.50;48.60;;;;;;4997452;28;20183;-70
2022/03/21 09:37:51;;;;;;;21.77;19.77;;;20.20;48.70;;;;;;5008389;28;20278;-70
2022/03/21 09:40:19;;;;;;;20.97;18.97;;;20.90;47.50;;;;;;4997119;28;20747;-69
2022/03/21 09:42:47;;;;;;;20.37;18.47;;;21.60;46.40;;;;;;5002783;28;20207;-68
2022/03/21 09:45:13;;;;;;;21.73;19.73;;;22.60;44.70;;;;;;5008601;28;20438;-67
2022/03/21 09:50:35;;;;;;;21.87;19.77;;;24.30;41.10;;;;;;5001935;28;20480;-67
2022/03/21 09:53:02;;;;;;;21.20;19.20;;;24.30;40.80;;;;;;4999298;28;21008;-70
2022/03/21 09:55:27;;;;;;;18.63;17.00;;;24.60;40.10;;;;;;4994833;28;20438;-70
2022/03/21 09:57:53;;;;;;;20.03;18.30;;;24.80;39.90;;;;;;4996071;28;20438;-67
2022/03/21 10:00:19;;;;;;;19.90;18.17;;;25.40;38.60;;;;;;5000949;28;20194;-67
2022/03/21 10:02:44;;;;;;;23.20;20.77;;;25.50;37.80;;;;;;4995190;28;20489;-67
2022/03/21 10:05:39;;;;;;;21.17;19.07;;;25.00;37.80;;;;;;4995840;28;20693;-70
2022/03/21 10:08:16;;;;;;;19.80;18.00;;;25.30;37.60;;;;;;5002136;28;20197;-70
2022/03/21 10:10:58;;;;;;;24.23;21.03;;;25.30;37.00;;;;;;5003341;28;20461;-70
2022/03/21 10:13:28;;;;;;;23.83;21.47;;;24.00;37.20;;;;;;5000771;28;20466;-70
2022/03/21 10:16:17;;;;;;;24.90;22.60;;;22.40;39.00;;;;;;4985898;28;21036;-70
2022/03/21 10:18:55;;;;;;;23.00;20.70;;;21.70;40.10;;;;;;4993399;28;20550;-69
2022/03/21 10:21:24;;;;;;;24.83;22.43;;;20.60;41.30;;;;;;5003964;28;20446;-69
2022/03/21 10:24:07;;;;;;;22.27;19.87;;;21.30;41.10;;;;;;4998812;28;20444;-70
2022/03/21 10:26:40;;;;;;;21.73;19.63;;;22.20;40.30;;;;;;4996715;28;20438;-70
2022/03/21 10:29:10;;;;;;;22.87;20.53;;;23.70;39.30;;;;;;4994365;28;20972;-72
2022/03/21 10:31:48;;;;;;;22.60;20.47;;;23.70;38.40;;;;;;4998704;28;20445;-69
2022/03/21 10:34:18;;;;;;;24.00;21.33;;;22.70;38.90;;;;;;5005605;28;21165;-69
2022/03/21 10:37:08;;;;;;;22.40;20.00;;;21.30;40.40;;;;;;5008317;28;20438;-70
2022/03/21 10:39:35;;;;;;;21.60;19.30;;;20.90;41.30;;;;;;4993054;28;20929;-69
2022/03/21 10:42:05;;;;;;;21.37;19.27;;;21.30;42.00;;;;;;5001244;28;20454;-70
2022/03/21 10:44:33;;;;;;;22.27;20.17;;;22.50;40.60;;;;;;5003701;28;20441;-70
2022/03/21 10:47:00;;;;;;;22.13;19.60;;;23.60;39.50;;;;;;4996479;28;20449;-70
2022/03/21 10:49:32;;;;;;;20.77;18.27;;;23.90;38.10;;;;;;5003616;28;20552;-71
2022/03/21 10:51:58;;;;;;;20.90;18.80;;;24.50;37.40;;;;;;4996130;28;20579;-70
2022/03/21 10:54:39;;;;;;;20.60;18.33;;;25.40;37.00;;;;;;5002162;28;20441;-70
2022/03/21 10:57:05;;;;;;;21.67;19.63;;;25.60;36.50;;;;;;5002609;28;20444;-70
2022/03/21 10:59:32;;;;;;;21.93;19.73;;;25.70;35.90;;;;;;5002747;28;20467;-70
2022/03/21 11:02:24;;;;;;;21.30;19.30;;;25.40;36.10;;;;;;5003039;28;20572;-70
2022/03/21 11:04:50;;;;;;;21.47;19.43;;;26.20;36.10;;;;;;4997072;28;20496;-69
2022/03/21 11:07:15;;;;;;;22.63;18.43;;;25.50;35.50;;;;;;4995140;28;20453;-69
2022/03/21 11:09:42;;;;;;;18.87;17.03;;;24.90;36.30;;;;;;5001082;28;20580;-70
2022/03/21 11:12:09;;;;;;;20.80;18.90;;;25.40;36.50;;;;;;4999074;28;20657;-71
2022/03/21 11:14:39;;;;;;;19.30;17.70;;;25.90;36.10;;;;;;5001970;28;20499;-70
2022/03/21 11:17:06;;;;;;;21.17;19.17;;;25.40;36.00;;;;;;5008132;28;20984;-70
2022/03/21 11:19:32;;;;;;;22.17;20.10;;;25.30;36.20;;;;;;5008021;28;20463;-70
2022/03/21 11:22:00;;;;;;;20.30;18.70;;;24.90;36.50;;;;;;5001107;28;20497;-70
2022/03/21 11:24:29;;;;;;;22.07;19.97;;;25.30;36.00;;;;;;5007403;28;20453;-70
2022/03/21 11:27:25;;;;;;;24.57;21.87;;;25.10;35.80;;;;;;5002630;28;20958;-72
2022/03/21 11:30:02;;;;;;;21.47;19.47;;;24.60;36.10;;;;;;5006116;28;20481;-70
2022/03/21 11:32:52;;;;;;;22.07;20.17;;;23.60;36.70;;;;;;5005549;28;20523;-70
2022/03/21 11:35:25;;;;;;;26.80;24.20;;;23.50;37.70;;;;;;5011506;28;20437;-70
2022/03/21 11:37:51;;;;;;;32.97;28.37;;;23.20;37.60;;;;;;4993980;28;20879;-70
2022/03/21 11:40:24;;;;;;;25.33;22.73;;;23.10;37.40;;;;;;4998516;28;20473;-73
2022/03/21 11:42:50;;;;;;;24.20;21.80;;;23.30;37.00;;;;;;5005061;28;20193;-73
2022/03/21 11:45:37;;;;;;;24.90;22.30;;;23.40;37.30;;;;;;5006906;28;20449;-72
2022/03/21 11:48:17;;;;;;;24.30;22.10;;;23.80;36.90;;;;;;5007359;28;20796;-74
2022/03/21 11:50:44;;;;;;;22.13;19.97;;;24.40;36.50;;;;;;5008966;28;21039;-73
2022/03/21 11:53:14;;;;;;;23.57;21.20;;;25.20;35.20;;;;;;4999420;28;20856;-74
2022/03/21 11:55:45;;;;;;;24.63;21.63;;;26.40;34.60;;;;;;5009088;28;20805;-74
2022/03/21 11:58:23;;;;;;;23.00;21.03;;;27.70;33.90;;;;;;5009177;28;20439;-70
2022/03/21 12:01:13;;;;;;;23.90;21.70;;;28.80;32.40;;;;;;5010073;28;20492;-68
2022/03/21 12:03:43;;;;;;;23.20;20.50;;;29.60;31.60;;;;;;5005732;28;20922;-71
2022/03/21 12:06:27;;;;;;;23.03;19.83;;;29.60;31.40;;;;;;5010729;28;20445;-71
2022/03/21 12:09:12;;;;;;;20.37;18.33;;;30.40;31.00;;;;;;5007721;28;20465;-71
2022/03/21 12:11:38;;;;;;;22.57;20.47;;;30.50;30.30;;;;;;5009478;28;20972;-68
2022/03/21 12:14:22;;;;;;;23.80;21.30;;;30.20;30.30;;;;;;5011952;28;20539;-72
2022/03/21 12:17:11;;;;;;;20.93;19.10;;;30.60;30.00;;;;;;5002031;28;20525;-71
2022/03/21 12:19:48;;;;;;;21.43;19.43;;;30.80;29.70;;;;;;5004906;28;20488;-65
2022/03/21 12:22:29;;;;;;;21.37;19.37;;;31.90;29.40;;;;;;5007257;28;20458;-65
2022/03/21 12:24:59;;;;;;;20.30;18.20;;;31.80;29.20;;;;;;5010719;28;20429;-66
2022/03/21 12:27:50;;;;;;;21.90;19.90;;;30.60;29.10;;;;;;5014118;28;20925;-70
2022/03/21 12:30:26;;;;;;;21.57;19.63;;;30.70;29.20;;;;;;4999460;28;20535;-68
2022/03/21 12:33:07;;;;;;;21.30;19.30;;;31.60;28.80;;;;;;5009307;28;20433;-68
2022/03/21 12:35:32;;;;;;;22.27;19.93;;;33.10;27.90;;;;;;5011812;28;20469;-68
2022/03/21 12:38:09;;;;;;;22.27;20.40;;;34.20;27.40;;;;;;5010519;28;20928;-68
2022/03/21 12:41:00;;;;;;;22.90;21.00;;;33.70;26.70;;;;;;5004998;28;20287;-67
2022/03/21 12:43:28;;;;;;;21.73;19.83;;;34.50;26.60;;;;;;5008087;28;20828;-67
2022/03/21 12:46:06;;;;;;;20.70;18.80;;;33.80;26.20;;;;;;5005658;28;20434;-69
2022/03/21 12:48:34;;;;;;;21.33;19.23;;;34.00;26.50;;;;;;5007051;28;20442;-67
2022/03/21 12:51:00;;;;;;;22.03;20.23;;;34.40;26.00;;;;;;5006188;28;20466;-69
2022/03/21 12:53:43;;;;;;;20.67;18.70;;;34.30;25.60;;;;;;5009605;28;20437;-67
2022/03/21 12:56:09;;;;;;;27.23;19.57;;;33.60;25.80;;;;;;5009728;28;20441;-69
2022/03/21 12:58:38;;;;;;;21.63;19.53;;;33.40;26.10;;;;;;5002857;28;20487;-67
2022/03/21 13:01:04;;;;;;;23.50;21.40;;;33.00;26.00;;;;;;5008132;28;20472;-67
2022/03/21 13:03:30;;;;;;;22.33;20.10;;;32.40;26.00;;;;;;5008656;28;20964;-67
2022/03/21 13:11:50;;;;;;;22.27;20.33;;;30.40;26.70;;;;;;4977667;28;20450;-67
2022/03/21 13:14:17;;;;;;;21.07;19.33;;;30.20;26.70;;;;;;5007649;28;20446;-67